createdAt,value
2023-05-21T00:01:49.976Z,2.42
2023-05-21T00:04:11.243Z,3.47
2023-05-21T00:06:31.976Z,3.08
2023-05-21T00:08:52.192Z,3.35
2023-05-21T00:11:12.244Z,3.10
2023-05-21T00:13:32.421Z,2.83
2023-05-21T00:15:52.625Z,2.33
2023-05-21T00:18:12.612Z,2.83
2023-05-21T00:20:33.087Z,2.35
2023-05-21T00:22:53.445Z,3.25
2023-05-21T00:25:13.534Z,3.10
2023-05-21T00:27:33.723Z,2.70
2023-05-21T00:29:54.025Z,2.38
2023-05-21T00:32:14.283Z,2.80
2023-05-21T00:34:35.678Z,2.65
2023-05-21T00:36:56.669Z,2.58
2023-05-21T00:39:16.950Z,3.08
2023-05-21T00:41:39.422Z,3.50
2023-05-21T00:43:59.677Z,2.55
2023-05-21T00:46:21.388Z,2.58
2023-05-21T00:48:41.741Z,3.00
2023-05-21T00:51:01.914Z,3.38
2023-05-21T00:53:22.168Z,6.38
2023-05-21T00:55:42.245Z,4.93
2023-05-21T00:58:03.887Z,3.95
2023-05-21T01:00:25.785Z,4.07
2023-05-21T01:02:46.202Z,3.42
2023-05-21T01:05:06.585Z,3.42
2023-05-21T01:07:26.828Z,3.30
2023-05-21T01:09:47.008Z,3.40
2023-05-21T01:12:07.946Z,4.05
2023-05-21T01:14:28.178Z,3.75
2023-05-21T01:16:49.329Z,2.88
2023-05-21T01:19:10.966Z,4.50
2023-05-21T01:21:31.186Z,3.50
2023-05-21T01:23:51.401Z,5.18
2023-05-21T01:26:12.314Z,3.67
2023-05-21T01:28:33.917Z,4.03
2023-05-21T01:30:54.761Z,3.42
2023-05-21T01:33:21.396Z,3.42
2023-05-21T01:35:47.283Z,5.32
2023-05-21T01:38:19.749Z,4.15
2023-05-21T01:40:52.644Z,3.38
2023-05-21T01:43:13.949Z,3.42
2023-05-21T01:45:37.516Z,3.63
2023-05-21T01:47:58.316Z,4.20
2023-05-21T01:50:19.017Z,4.07
2023-05-21T01:52:39.174Z,4.55
2023-05-21T01:54:59.735Z,18.70
2023-05-21T01:57:20.147Z,8.68
2023-05-21T01:59:40.704Z,4.10
2023-05-21T02:02:01.056Z,3.50
2023-05-21T02:04:21.136Z,4.88
2023-05-21T02:06:41.513Z,4.55
2023-05-21T02:09:02.085Z,4.15
2023-05-21T02:11:22.678Z,4.60
2023-05-21T02:13:45.295Z,6.78
2023-05-21T02:16:05.474Z,6.40
2023-05-21T02:18:25.715Z,5.55
2023-05-21T02:20:46.245Z,6.40
2023-05-21T02:23:06.501Z,6.80
2023-05-21T02:25:26.648Z,6.35
2023-05-21T02:27:47.094Z,7.20
2023-05-21T02:30:08.563Z,6.65
2023-05-21T02:32:28.853Z,6.93
2023-05-21T02:34:49.518Z,7.22
2023-05-21T02:37:09.737Z,6.93
2023-05-21T02:39:30.085Z,7.32
2023-05-21T02:41:50.178Z,6.95
2023-05-21T02:44:10.305Z,7.90
2023-05-21T02:46:30.709Z,8.07
2023-05-21T02:48:51.316Z,7.68
2023-05-21T02:51:11.527Z,7.97
2023-05-21T02:53:31.482Z,7.90
2023-05-21T02:55:51.616Z,8.52
2023-05-21T02:58:12.936Z,8.75
2023-05-21T03:00:33.336Z,8.85
2023-05-21T03:02:53.547Z,8.18
2023-05-21T03:05:13.997Z,8.73
2023-05-21T03:07:34.210Z,10.20
2023-05-21T03:09:54.340Z,9.52
2023-05-21T03:12:14.847Z,9.45
2023-05-21T03:14:35.038Z,8.93
2023-05-21T03:16:55.502Z,9.75
2023-05-21T03:19:15.743Z,6.63
2023-05-21T03:21:36.069Z,5.10
2023-05-21T03:23:59.989Z,4.05
2023-05-21T03:26:21.528Z,4.55
2023-05-21T03:28:41.840Z,5.05
2023-05-21T03:31:02.149Z,5.30
2023-05-21T03:33:22.907Z,7.85
2023-05-21T03:35:43.269Z,6.15
2023-05-21T03:38:03.397Z,5.75
2023-05-21T03:40:23.601Z,6.15
2023-05-21T03:42:43.574Z,6.70
2023-05-21T03:45:03.943Z,5.45
2023-05-21T03:47:23.976Z,6.70
2023-05-21T03:49:43.958Z,7.30
2023-05-21T03:52:04.258Z,6.97
2023-05-21T03:54:25.104Z,6.55
2023-05-21T03:56:45.188Z,7.35
2023-05-21T03:59:05.329Z,6.50
2023-05-21T04:01:25.381Z,6.75
2023-05-21T04:03:45.628Z,7.32
2023-05-21T04:06:06.421Z,6.60
2023-05-21T04:08:27.134Z,7.68
2023-05-21T04:10:47.224Z,7.30
2023-05-21T04:13:07.430Z,6.13
2023-05-21T04:15:28.112Z,6.55
2023-05-21T04:17:49.586Z,10.15
2023-05-21T04:20:10.671Z,5.78
2023-05-21T04:22:30.788Z,6.97
2023-05-21T04:24:52.012Z,7.00
2023-05-21T04:27:13.366Z,6.35
2023-05-21T04:29:33.532Z,6.85
2023-05-21T04:31:53.574Z,5.50
2023-05-21T04:34:17.242Z,7.95
2023-05-21T04:36:37.709Z,6.50
2023-05-21T04:38:58.095Z,8.20
2023-05-21T04:41:18.573Z,6.55
2023-05-21T04:43:43.333Z,7.63
2023-05-21T04:46:04.063Z,7.45
2023-05-21T04:48:26.097Z,9.75
2023-05-21T04:50:46.686Z,6.18
2023-05-21T04:53:07.180Z,7.95
2023-05-21T04:55:28.310Z,7.97
2023-05-21T04:57:48.670Z,7.50
2023-05-21T05:00:09.725Z,7.90
2023-05-21T05:02:30.106Z,6.65
2023-05-21T05:04:50.295Z,6.88
2023-05-21T05:07:10.677Z,8.02
2023-05-21T05:09:31.080Z,7.00
2023-05-21T05:11:51.515Z,6.00
2023-05-21T05:14:11.902Z,5.60
2023-05-21T05:16:33.569Z,7.57
2023-05-21T05:18:54.154Z,6.55
2023-05-21T05:21:15.129Z,5.97
2023-05-21T05:23:35.738Z,6.45
2023-05-21T05:25:55.852Z,7.70
2023-05-21T05:28:16.208Z,5.78
2023-05-21T05:30:36.591Z,7.18
2023-05-21T05:32:57.187Z,7.15
2023-05-21T05:35:17.339Z,5.78
2023-05-21T05:37:37.672Z,5.72
2023-05-21T05:39:57.995Z,8.85
2023-05-21T05:42:19.048Z,6.40
2023-05-21T05:44:39.456Z,4.65
2023-05-21T05:46:59.664Z,5.10
2023-05-21T05:49:19.948Z,5.75
2023-05-21T05:51:40.675Z,5.63
2023-05-21T05:54:01.187Z,5.32
2023-05-21T05:56:21.420Z,5.38
2023-05-21T05:58:41.664Z,6.07
2023-05-21T06:01:02.300Z,8.30
2023-05-21T06:03:22.485Z,5.82
2023-05-21T06:05:42.549Z,6.57
2023-05-21T06:08:02.598Z,7.45
2023-05-21T06:10:22.680Z,7.05
2023-05-21T06:12:42.894Z,7.28
2023-05-21T06:15:02.738Z,7.00
2023-05-21T06:17:23.030Z,8.15
2023-05-21T06:19:44.563Z,7.82
2023-05-21T06:22:04.778Z,9.40
2023-05-21T06:24:24.828Z,8.18
2023-05-21T06:26:45.302Z,9.73
2023-05-21T06:29:05.392Z,8.38
2023-05-21T06:31:25.398Z,9.38
2023-05-21T06:33:45.884Z,10.95
2023-05-21T06:36:06.325Z,10.15
2023-05-21T06:38:26.580Z,9.30
2023-05-21T06:40:49.599Z,10.02
2023-05-21T06:43:09.819Z,9.30
2023-05-21T06:45:30.064Z,8.35
2023-05-21T06:47:49.924Z,8.95
2023-05-21T06:50:10.161Z,9.63
2023-05-21T06:52:31.132Z,8.05
2023-05-21T06:54:51.433Z,11.60
2023-05-21T06:57:11.524Z,11.68
2023-05-21T06:59:32.005Z,11.93
2023-05-21T07:01:52.184Z,16.10
2023-05-21T07:04:12.221Z,14.73
2023-05-21T07:06:32.388Z,9.50
2023-05-21T07:08:52.618Z,8.30
2023-05-21T07:11:12.784Z,8.98
2023-05-21T07:13:32.938Z,9.25
2023-05-21T07:15:53.145Z,9.95
2023-05-21T07:18:13.480Z,10.23
2023-05-21T07:20:33.988Z,8.57
2023-05-21T07:22:54.192Z,8.90
2023-05-21T07:25:14.364Z,7.57
2023-05-21T07:27:34.652Z,8.65
2023-05-21T07:29:54.818Z,8.75
2023-05-21T07:32:15.160Z,7.93
2023-05-21T07:34:35.554Z,8.38
2023-05-21T07:36:56.083Z,9.82
2023-05-21T07:39:16.372Z,8.32
2023-05-21T07:41:36.352Z,8.10
2023-05-21T07:43:56.546Z,7.70
2023-05-21T07:46:16.955Z,7.43
2023-05-21T07:48:37.184Z,9.00
2023-05-21T07:50:58.608Z,7.55
2023-05-21T07:53:19.282Z,10.30
2023-05-21T07:55:46.867Z,9.13
2023-05-21T07:58:06.821Z,8.40
2023-05-21T08:00:26.945Z,8.07
2023-05-21T08:02:47.304Z,8.55
2023-05-21T08:05:07.911Z,8.52
2023-05-21T08:07:28.137Z,8.32
2023-05-21T08:09:48.202Z,7.38
2023-05-21T08:12:08.314Z,6.63
2023-05-21T08:14:28.334Z,7.28
2023-05-21T08:16:48.596Z,6.97
2023-05-21T08:19:08.660Z,6.95
2023-05-21T08:21:28.990Z,6.75
2023-05-21T08:23:49.511Z,7.07
2023-05-21T08:26:10.086Z,6.90
2023-05-21T08:28:30.610Z,4.97
2023-05-21T08:30:51.168Z,5.93
2023-05-21T08:33:11.321Z,5.95
2023-05-21T08:35:31.374Z,6.65
2023-05-21T08:37:51.601Z,5.78
2023-05-21T08:40:12.691Z,6.55
2023-05-21T08:42:37.531Z,6.63
2023-05-21T08:45:00.281Z,5.93
2023-05-21T08:47:23.929Z,5.68
2023-05-21T08:49:44.978Z,4.68
2023-05-21T08:52:05.750Z,4.47
2023-05-21T08:54:27.342Z,4.60
2023-05-21T08:56:48.874Z,5.03
2023-05-21T08:59:09.119Z,3.88
2023-05-21T09:01:31.426Z,4.32
2023-05-21T09:03:54.559Z,5.07
2023-05-21T09:06:19.326Z,6.68
2023-05-21T09:08:44.337Z,9.35
2023-05-21T09:11:04.854Z,4.38
2023-05-21T09:13:25.229Z,4.22
2023-05-21T09:15:46.258Z,3.53
2023-05-21T09:18:06.678Z,3.25
2023-05-21T09:20:27.572Z,3.08
2023-05-21T09:22:48.938Z,4.55
2023-05-21T09:25:09.989Z,3.30
2023-05-21T09:27:30.463Z,3.78
2023-05-21T09:29:50.778Z,3.83
2023-05-21T09:32:11.738Z,3.03
2023-05-21T09:34:32.045Z,3.13
2023-05-21T09:36:52.895Z,4.45
2023-05-21T09:39:27.318Z,4.47
2023-05-21T09:41:48.450Z,2.80
2023-05-21T09:44:10.662Z,3.88
2023-05-21T09:46:40.839Z,9.10
2023-05-21T09:49:01.127Z,3.50
2023-05-21T09:51:21.369Z,3.17
2023-05-21T09:53:44.983Z,4.03
2023-05-21T09:56:05.081Z,2.90
2023-05-21T09:58:25.890Z,3.33
2023-05-21T10:00:46.016Z,3.22
2023-05-21T10:03:09.593Z,4.45
2023-05-21T10:05:30.624Z,2.97
2023-05-21T10:07:52.977Z,2.80
2023-05-21T10:10:14.353Z,2.78
2023-05-21T10:12:34.999Z,3.75
2023-05-21T10:15:00.585Z,4.28
2023-05-21T10:17:21.781Z,5.80
2023-05-21T10:19:42.568Z,4.10
2023-05-21T10:22:03.880Z,3.83
2023-05-21T10:24:24.583Z,5.88
2023-05-21T10:26:44.810Z,3.50
2023-05-21T10:29:05.100Z,3.47
2023-05-21T10:31:26.010Z,3.63
2023-05-21T10:33:46.302Z,13.90
2023-05-21T10:36:06.580Z,8.65
2023-05-21T10:38:27.557Z,6.10
2023-05-21T10:40:49.066Z,3.45
2023-05-21T10:43:12.111Z,4.18
2023-05-21T10:45:47.840Z,3.78
2023-05-21T10:48:18.880Z,17.65
2023-05-21T10:50:39.278Z,3.15
2023-05-21T10:53:17.399Z,3.60
2023-05-21T10:55:40.779Z,4.00
2023-05-21T10:58:16.624Z,5.03
2023-05-21T11:00:37.220Z,4.13
2023-05-21T11:02:58.253Z,4.00
2023-05-21T11:05:54.633Z,3.50
2023-05-21T11:08:25.107Z,4.90
2023-05-21T11:10:51.388Z,3.67
2023-05-21T11:13:24.249Z,3.38
2023-05-21T11:16:02.014Z,3.85
2023-05-21T11:18:22.259Z,3.63
2023-05-21T11:20:44.915Z,5.25
2023-05-21T11:25:25.198Z,3.63
2023-05-21T11:27:45.335Z,3.75
2023-05-21T11:30:18.898Z,4.20
2023-05-21T11:32:40.286Z,8.35
2023-05-21T11:35:01.715Z,2.70
2023-05-21T11:37:27.166Z,3.33
2023-05-21T11:39:48.088Z,3.78
2023-05-21T11:42:08.107Z,3.95
2023-05-21T11:44:38.267Z,3.33
2023-05-21T11:46:58.996Z,3.88
2023-05-21T11:49:21.970Z,4.15
2023-05-21T11:54:02.802Z,3.20
2023-05-21T11:56:23.779Z,3.55
2023-05-21T11:58:43.959Z,4.50
2023-05-21T12:01:04.268Z,4.90
2023-05-21T12:03:26.232Z,3.35
2023-05-21T12:05:46.931Z,3.65
2023-05-21T12:08:07.978Z,4.97
2023-05-21T12:10:28.226Z,4.05
2023-05-21T12:12:55.693Z,3.90
2023-05-21T12:15:17.670Z,4.30
2023-05-21T12:17:38.639Z,3.22
2023-05-21T12:19:58.975Z,4.30
2023-05-21T12:22:19.413Z,3.90
2023-05-21T12:24:39.752Z,4.05
2023-05-21T12:27:01.108Z,3.67
2023-05-21T12:29:22.741Z,4.13
2023-05-21T12:31:49.914Z,3.25
2023-05-21T12:34:10.453Z,3.33
2023-05-21T12:36:31.240Z,3.13
2023-05-21T12:38:51.395Z,3.45
2023-05-21T12:41:11.384Z,4.05
2023-05-21T12:43:32.349Z,4.57
2023-05-21T12:45:53.410Z,4.47
2023-05-21T12:48:13.660Z,5.32
2023-05-21T12:50:35.173Z,11.35
2023-05-21T12:52:56.523Z,4.13
2023-05-21T12:55:17.457Z,4.80
2023-05-21T12:57:38.072Z,3.58
2023-05-21T12:59:59.662Z,4.25
2023-05-21T13:02:20.878Z,3.67
2023-05-21T13:04:40.830Z,4.72
2023-05-21T13:07:02.867Z,4.63
2023-05-21T13:09:25.040Z,3.58
2023-05-21T13:11:45.392Z,4.53
2023-05-21T13:14:05.576Z,3.95
2023-05-21T13:16:25.842Z,4.50
2023-05-21T13:18:45.930Z,4.00
2023-05-21T13:21:05.926Z,5.70
2023-05-21T13:23:26.153Z,3.00
2023-05-21T13:25:46.156Z,2.90
2023-05-21T13:28:08.073Z,4.00
2023-05-21T13:30:28.545Z,3.88
2023-05-21T13:32:49.095Z,3.50
2023-05-21T13:35:10.185Z,3.25
2023-05-21T13:37:30.583Z,3.25
2023-05-21T13:39:50.959Z,3.50
2023-05-21T13:42:11.335Z,3.20
2023-05-21T13:44:35.946Z,3.40
2023-05-21T13:46:56.437Z,3.80
2023-05-21T13:49:16.771Z,3.00
2023-05-21T13:51:39.334Z,4.18
2023-05-21T13:53:59.772Z,3.95
2023-05-21T13:56:21.568Z,3.92
2023-05-21T13:58:42.172Z,4.13
2023-05-21T14:01:02.917Z,3.58
2023-05-21T14:03:23.005Z,4.57
2023-05-21T14:05:43.520Z,3.95
2023-05-21T14:08:04.029Z,3.90
2023-05-21T14:10:24.146Z,2.97
2023-05-21T14:12:45.391Z,5.55
2023-05-21T14:15:05.951Z,4.00
2023-05-21T14:17:26.448Z,3.47
2023-05-21T14:19:47.380Z,3.03
2023-05-21T14:22:07.603Z,4.15
2023-05-21T14:24:27.712Z,4.00
2023-05-21T14:26:47.727Z,4.65
2023-05-21T14:29:08.063Z,4.53
2023-05-21T14:31:28.561Z,3.28
2023-05-21T14:33:49.208Z,3.40
2023-05-21T14:36:09.522Z,4.43
2023-05-21T14:38:29.664Z,3.85
2023-05-21T14:40:50.022Z,5.68
2023-05-21T14:43:10.334Z,4.63
2023-05-21T14:45:32.334Z,4.35
2023-05-21T14:47:52.557Z,7.22
2023-05-21T14:50:12.604Z,3.55
2023-05-21T14:52:32.758Z,3.92
2023-05-21T14:54:52.838Z,3.63
2023-05-21T14:57:13.231Z,4.88
2023-05-21T14:59:33.333Z,4.70
2023-05-21T15:01:53.721Z,8.50
2023-05-21T15:04:13.858Z,3.97
2023-05-21T15:06:34.509Z,4.13
2023-05-21T15:08:54.766Z,3.70
2023-05-21T15:11:14.909Z,3.78
2023-05-21T15:13:34.860Z,3.47
2023-05-21T15:15:54.976Z,4.15
2023-05-21T15:18:15.313Z,2.88
2023-05-21T15:20:35.638Z,10.27
2023-05-21T15:23:08.787Z,3.50
2023-05-21T15:25:36.022Z,3.78
2023-05-21T15:27:56.506Z,2.75
2023-05-21T15:30:16.740Z,3.80
2023-05-21T15:32:37.153Z,2.92
2023-05-21T15:34:57.930Z,3.75
2023-05-21T15:37:18.536Z,4.25
2023-05-21T15:39:39.231Z,3.83
2023-05-21T15:41:59.464Z,4.35
2023-05-21T15:44:20.200Z,3.67
2023-05-21T15:46:40.823Z,2.95
2023-05-21T15:49:01.459Z,3.92
2023-05-21T15:51:21.757Z,3.08
2023-05-21T15:53:42.041Z,3.38
2023-05-21T15:56:02.625Z,3.53
2023-05-21T15:58:22.562Z,3.30
2023-05-21T16:00:42.761Z,4.38
2023-05-21T16:03:03.094Z,3.45
2023-05-21T16:05:23.168Z,2.92
2023-05-21T16:07:43.810Z,3.17
2023-05-21T16:10:04.183Z,2.78
2023-05-21T16:12:24.357Z,2.72
2023-05-21T16:14:44.418Z,3.22
2023-05-21T16:17:04.754Z,3.13
2023-05-21T16:19:25.309Z,2.65
2023-05-21T16:21:45.699Z,2.05
2023-05-21T16:24:06.153Z,4.50
2023-05-21T16:26:26.434Z,3.00
2023-05-21T16:28:46.545Z,4.07
2023-05-21T16:31:07.845Z,3.78
2023-05-21T16:33:28.336Z,5.47
2023-05-21T16:35:48.325Z,3.08
2023-05-21T16:38:08.447Z,3.30
2023-05-21T16:40:28.561Z,3.22
2023-05-21T16:42:48.662Z,3.05
2023-05-21T16:45:10.125Z,3.08
2023-05-21T16:47:30.240Z,2.97
2023-05-21T16:49:50.292Z,3.42
2023-05-21T16:52:10.351Z,2.92
2023-05-21T16:54:30.510Z,3.40
2023-05-21T16:56:50.708Z,3.47
2023-05-21T16:59:10.957Z,3.13
2023-05-21T17:01:31.501Z,3.08
2023-05-21T17:03:51.852Z,3.05
2023-05-21T17:06:14.082Z,2.90
2023-05-21T17:08:34.615Z,3.83
2023-05-21T17:10:55.413Z,3.60
2023-05-21T17:13:22.055Z,3.50
2023-05-21T17:15:43.105Z,3.78
2023-05-21T17:18:03.247Z,3.22
2023-05-21T17:20:24.998Z,2.92
2023-05-21T17:22:45.490Z,3.72
2023-05-21T17:25:05.920Z,3.25
2023-05-21T17:27:26.339Z,3.90
2023-05-21T17:29:46.428Z,3.22
2023-05-21T17:32:07.094Z,2.65
2023-05-21T17:34:29.731Z,3.60
2023-05-21T17:36:49.993Z,3.55
2023-05-21T17:39:10.566Z,4.05
2023-05-21T17:41:30.534Z,2.53
2023-05-21T17:43:50.594Z,3.67
2023-05-21T17:46:10.890Z,3.70
2023-05-21T17:48:31.371Z,3.28
2023-05-21T17:50:51.488Z,3.50
2023-05-21T17:53:12.342Z,4.72
2023-05-21T17:55:32.541Z,5.75
2023-05-21T17:57:52.553Z,3.63
2023-05-21T18:00:12.871Z,3.58
2023-05-21T18:02:33.080Z,3.35
2023-05-21T18:04:53.449Z,3.95
2023-05-21T18:07:13.914Z,4.03
2023-05-21T18:09:34.171Z,4.88
2023-05-21T18:11:54.571Z,3.95
2023-05-21T18:14:14.912Z,3.50
2023-05-21T18:16:35.143Z,3.75
2023-05-21T18:18:55.215Z,3.65
2023-05-21T18:21:15.788Z,3.92
2023-05-21T18:23:36.212Z,3.97
2023-05-21T18:25:56.350Z,4.45
2023-05-21T18:28:16.293Z,4.13
2023-05-21T18:30:36.944Z,6.22
2023-05-21T18:32:57.477Z,3.47
2023-05-21T18:35:17.699Z,4.43
2023-05-21T18:37:38.152Z,4.65
2023-05-21T18:39:58.184Z,4.22
2023-05-21T18:42:18.319Z,6.30
2023-05-21T18:44:38.604Z,4.55
2023-05-21T18:46:58.772Z,4.57
2023-05-21T18:49:20.631Z,4.03
2023-05-21T18:51:40.990Z,5.97
2023-05-21T18:54:01.116Z,3.90
2023-05-21T18:56:21.474Z,4.22
2023-05-21T18:58:41.999Z,4.68
2023-05-21T19:01:02.785Z,4.55
2023-05-21T19:03:23.051Z,5.85
2023-05-21T19:05:43.432Z,5.63
2023-05-21T19:08:04.114Z,5.78
2023-05-21T19:10:24.297Z,5.55
2023-05-21T19:12:44.336Z,5.72
2023-05-21T19:15:04.700Z,5.97
2023-05-21T19:17:25.435Z,5.57
2023-05-21T19:19:45.555Z,5.45
2023-05-21T19:22:06.046Z,6.43
2023-05-21T19:24:26.456Z,6.35
2023-05-21T19:26:46.621Z,6.47
2023-05-21T19:29:08.848Z,5.88
2023-05-21T19:31:29.159Z,6.15
2023-05-21T19:33:49.400Z,7.15
2023-05-21T19:36:09.760Z,6.07
2023-05-21T19:38:29.892Z,6.40
2023-05-21T19:40:50.203Z,6.25
2023-05-21T19:43:12.183Z,7.20
2023-05-21T19:45:32.678Z,6.93
2023-05-21T19:47:52.807Z,6.00
2023-05-21T19:50:13.021Z,6.25
2023-05-21T19:52:33.086Z,5.60
2023-05-21T19:54:53.363Z,6.15
2023-05-21T19:57:13.764Z,6.10
2023-05-21T19:59:34.327Z,6.85
2023-05-21T20:01:55.201Z,7.13
2023-05-21T20:04:15.598Z,6.15
2023-05-21T20:06:36.131Z,7.63
2023-05-21T20:08:56.364Z,6.97
2023-05-21T20:11:16.862Z,7.03
2023-05-21T20:13:37.343Z,7.45
2023-05-21T20:15:57.479Z,7.43
2023-05-21T20:18:19.511Z,7.50
2023-05-21T20:20:40.312Z,6.10
2023-05-21T20:23:02.654Z,7.25
2023-05-21T20:25:23.053Z,7.90
2023-05-21T20:27:43.375Z,6.90
2023-05-21T20:30:03.648Z,6.50
2023-05-21T20:32:23.945Z,6.55
2023-05-21T20:34:54.664Z,7.18
2023-05-21T20:37:25.477Z,7.30
2023-05-21T20:39:47.528Z,7.63
2023-05-21T20:42:09.991Z,7.97
2023-05-21T20:44:31.055Z,7.25
2023-05-21T20:46:52.008Z,6.82
2023-05-21T20:49:12.989Z,7.38
2023-05-21T20:51:33.052Z,8.13
2023-05-21T20:53:53.368Z,8.52
2023-05-21T20:56:14.182Z,6.90
2023-05-21T20:58:34.537Z,7.20
2023-05-21T21:00:54.695Z,8.10
2023-05-21T21:03:17.125Z,8.70
2023-05-21T21:05:37.432Z,8.38
2023-05-21T21:08:01.739Z,8.30
2023-05-21T21:10:21.838Z,8.27
2023-05-21T21:12:42.526Z,8.32
2023-05-21T21:15:02.954Z,9.35
2023-05-21T21:17:23.571Z,9.32
2023-05-21T21:19:44.222Z,8.45
2023-05-21T21:22:04.853Z,8.93
2023-05-21T21:24:25.136Z,8.27
2023-05-21T21:26:45.340Z,7.63
2023-05-21T21:29:05.418Z,7.97
2023-05-21T21:31:25.711Z,9.73
2023-05-21T21:33:46.229Z,9.05
2023-05-21T21:36:06.932Z,8.90
2023-05-21T21:38:27.531Z,9.00
2023-05-21T21:40:47.699Z,9.10
2023-05-21T21:43:07.748Z,8.25
2023-05-21T21:45:27.813Z,9.52
2023-05-21T21:47:48.099Z,8.80
2023-05-21T21:50:08.331Z,8.27
2023-05-21T21:52:28.738Z,8.60
2023-05-21T21:54:48.963Z,8.85
2023-05-21T21:57:09.132Z,9.00
2023-05-21T21:59:29.249Z,10.27
2023-05-21T22:01:49.431Z,8.75
2023-05-21T22:04:10.588Z,9.77
2023-05-21T22:06:31.160Z,9.57
2023-05-21T22:08:51.494Z,10.07
2023-05-21T22:11:11.653Z,8.93
2023-05-21T22:13:31.821Z,10.70
2023-05-21T22:15:52.158Z,9.13
2023-05-21T22:18:12.557Z,8.73
2023-05-21T22:20:34.497Z,8.93
2023-05-21T22:22:55.501Z,8.73
2023-05-21T22:25:15.794Z,9.82
2023-05-21T22:27:35.928Z,8.95
2023-05-21T22:29:56.346Z,9.25
2023-05-21T22:32:16.467Z,10.57
2023-05-21T22:34:36.434Z,9.27
2023-05-21T22:36:56.507Z,9.13
2023-05-21T22:39:17.318Z,10.52
2023-05-21T22:41:37.541Z,9.55
2023-05-21T22:43:57.500Z,9.02
2023-05-21T22:46:17.854Z,9.55
2023-05-21T22:48:41.148Z,9.55
2023-05-21T22:51:01.662Z,9.77
2023-05-21T22:53:22.661Z,9.35
2023-05-21T22:55:43.234Z,9.23
2023-05-21T22:58:03.490Z,9.98
2023-05-21T23:00:23.578Z,10.63
2023-05-21T23:02:43.635Z,9.45
2023-05-21T23:05:03.777Z,9.55
2023-05-21T23:07:23.884Z,10.20
2023-05-21T23:09:44.204Z,10.95
2023-05-21T23:12:04.482Z,7.65
2023-05-21T23:14:24.891Z,8.85
2023-05-21T23:16:45.425Z,9.07
2023-05-21T23:19:05.803Z,10.27
2023-05-21T23:21:26.161Z,9.63
2023-05-21T23:23:46.659Z,9.57
2023-05-21T23:26:06.898Z,10.57
2023-05-21T23:28:27.151Z,8.65
2023-05-21T23:30:47.390Z,9.20
2023-05-21T23:33:07.765Z,9.63
2023-05-21T23:35:28.307Z,9.93
2023-05-21T23:37:48.832Z,9.23
2023-05-21T23:40:09.421Z,9.10
2023-05-21T23:42:29.871Z,9.40
2023-05-21T23:44:50.069Z,9.25
2023-05-21T23:47:10.385Z,8.80
2023-05-21T23:49:30.499Z,8.27
2023-05-21T23:51:51.000Z,8.55
2023-05-21T23:54:11.541Z,10.32
2023-05-21T23:56:31.948Z,10.18
2023-05-21T23:58:52.571Z,9.27
